Etusivu
METAR-TAF:

METAR-TAF

Lentoasemat :

Rosario, Argentiina

Leveyspiiri: 32-55S, Pituuspiiri: 060-47W, korkeus merenpinnasta: 25 m

Tämänhetkinen sää

Tämä raportti tehtiin 15 minuuttia sitten, kello 15.00 UTC
Tuuli 7 kn etelästä/lounaasta
Lämpötila 32°C
Kosteus 49%
Ilmanpaine 1008 hPa
Näkyvyys 10 km tai enemmän
ei pilviä alle 1500 m:ssä eikä cumulonimbus-pilviä

METAR: SAAR 251500Z 20007KT CAVOK 32/20 Q1008

Aika: 12:15 (15:15 UTC)

Sääennuste

Tämä raportti tehtiin 45 minuuttia sitten, kello 14.30 UTC
Ennuste voimassa 25. päivästä klo 15 UTC - 26. päivään klo 12 UTC
Tuuli 10 kn etelästä
Näkyvyys 10 km tai enemmän
ei pilviä alle 1500 m:ssä eikä cumulonimbus-pilviä
Tulossa
25. päivästä klo 23 UTC - 26. päivään klo 01 UTC
Tuuli 5 kn eri suunnista
Hajanaisia pilviä 3000 ft:n korkeudessa

TAF: SAAR 251430Z 2515/2612 18010KT CAVOK TX35/2519Z TN22/2609Z BECMG 2523/2601 VRB05KT SCT030

Säähavainnot ja -ennusteet yli 4000 lentoasemalta (METAR- ja TAF-raportit).

Käytössä olevat sääasemat on merkitty karttaan keltaisilla ja punaisilla pisteillä.

Aseta hiiri pisteen päälle nähdäksesi sääaseman nimen.

Klikkaa sitten nähdäksesi säähavainnot ja -ennusteet.

Kartan vaihtaminen: klikkaa mustalla rastilla varustettuja vihreitä pisteitä, niin voit zoomata sisään; viivalla varustettua vihreää pistettä, niin voit zoomata ulos tai vihreitä nuolia, niin pääset viereisille kartoille.


METAR-TAF: